| time (UTC) | temp F | wind direction | speed knots | gust knots | rain 1hr in | rain 24hr in | rain mn in | humidity % | barometer mb |
| 20260504150252 | 64 | 127 | 1.7 | 4.3 | 0.00 | 0.00 | 0.00 | 43 | 1012.1 |
| 20260504141250 | 61 | 138 | 0.0 | 3.5 | 0.00 | 0.00 | 0.00 | 52 | 1012.4 |
| 20260504140751 | 61 | 80 | 0.9 | 2.6 | 0.00 | 0.00 | 0.00 | 48 | 1012.4 |
| 20260504140251 | 61 | 182 | 0.9 | 2.6 | 0.00 | 0.00 | 0.00 | 52 | 1012.4 |
| 20260504130749 | 58 | 140 | 0.0 | 3.5 | 0.00 | 0.00 | 0.00 | 53 | 1012.9 |
| 20260504130247 | 58 | 137 | 0.9 | 3.5 | 0.00 | 0.00 | 0.00 | 51 | 1013.0 |
| 20260504120246 | 51 | 266 | 0.0 | 1.7 | 0.00 | 0.00 | 0.00 | 56 | 1013.1 |
| 20260504110248 | 0 | 0.0 | 0.0 | 0.00 | 0.00 | 0.00 | 1013.2 | ||
| 20260504110243 | 0 | 0.0 | 0.0 | 0.00 | 0.00 | 0.00 | 1013.1 | ||
| 20260504100231 | 0 | 0.0 | 0.0 | 0.00 | 0.00 | 0.00 | 1012.8 | ||
| 20260504081710 | 0 | 0.0 | 0.0 | 0.00 | 0.00 | 0.00 | 1012.4 | ||
| 20260504081213 | 0 | 0.0 | 0.0 | 0.00 | 0.00 | 0.00 | 1012.4 | ||
| 20260504081209 | 0 | 0.0 | 0.0 | 0.00 | 0.00 | 0.00 | 1012.4 | ||
| 20260504080208 | 0 | 0.0 | 0.0 | 0.00 | 0.00 | 0.00 | 1012.3 | ||
| 20260504070155 | 0 | 0.0 | 0.0 | 0.00 | 0.00 | 0.00 | 1012.1 | ||
| 20260504060147 | 38 | 234 | 0.0 | 0.0 | 0.00 | 0.00 | 0.00 | 100 | 1012.0 |
| 20260504050644 | 38 | 235 | 0.0 | 0.0 | 0.00 | 0.00 | 0.00 | 100 | 1011.8 |
| 20260504050145 | 39 | 235 | 0.0 | 0.0 | 0.00 | 0.00 | 0.00 | 100 | 1011.8 |
| 20260504045643 | 39 | 235 | 0.0 | 0.0 | 0.00 | 0.00 | 0.00 | 100 | 1011.8 |
| 20260504045145 | 39 | 235 | 0.0 | 0.0 | 0.00 | 0.00 | 0.00 | 100 | 1011.8 |
| 20260504044645 | 39 | 235 | 0.0 | 0.0 | 0.00 | 0.00 | 0.00 | 100 | 1011.7 |
| 20260504044144 | 39 | 235 | 0.0 | 0.0 | 0.00 | 0.00 | 0.00 | 100 | 1011.9 |
| 20260504043648 | 39 | 234 | 0.0 | 0.0 | 0.00 | 0.00 | 0.00 | 100 | 1011.7 |
| 20260504043643 | 39 | 235 | 0.0 | 0.0 | 0.00 | 0.00 | 0.00 | 100 | 1011.8 |
| 20260504042643 | 40 | 235 | 0.0 | 0.0 | 0.00 | 0.00 | 0.00 | 100 | 1011.6 |
| 20260504042142 | 40 | 235 | 0.0 | 0.0 | 0.00 | 0.00 | 0.00 | 4 | 1011.7 |
| 20260504041643 | 40 | 235 | 0.0 | 0.0 | 0.00 | 0.00 | 0.00 | 7 | 1011.7 |
| 20260504041147 | 40 | 235 | 0.0 | 0.0 | 0.00 | 0.00 | 0.00 | 12 | 1011.7 |
| 20260504041143 | 40 | 235 | 0.0 | 0.0 | 0.00 | 0.00 | 0.00 | 12 | 1011.7 |
| 20260504040142 | 40 | 235 | 0.0 | 0.0 | 0.00 | 0.00 | 0.00 | 14 | 1011.6 |
| 20260504035641 | 40 | 235 | 0.0 | 0.0 | 0.00 | 0.00 | 0.00 | 18 | 1011.6 |
| 20260504035141 | 41 | 235 | 0.0 | 0.0 | 0.00 | 0.00 | 0.00 | 21 | 1011.6 |
| 20260504034641 | 41 | 235 | 0.0 | 0.0 | 0.00 | 0.00 | 0.00 | 25 | 1011.6 |
| 20260504034142 | 41 | 235 | 0.0 | 0.0 | 0.00 | 0.00 | 0.00 | 26 | 1011.6 |
| 20260504033641 | 41 | 235 | 0.0 | 0.0 | 0.00 | 0.00 | 0.00 | 29 | 1011.6 |
| 20260504033142 | 42 | 235 | 0.0 | 0.0 | 0.00 | 0.00 | 0.00 | 32 | 1011.6 |
| 20260504032641 | 42 | 235 | 0.0 | 0.0 | 0.00 | 0.00 | 0.00 | 34 | 1011.5 |
| 20260504032141 | 42 | 235 | 0.0 | 0.0 | 0.00 | 0.00 | 0.00 | 34 | 1011.5 |
| 20260504031640 | 42 | 235 | 0.0 | 0.0 | 0.00 | 0.00 | 0.00 | 37 | 1011.5 |
| 20260504031140 | 42 | 235 | 0.0 | 0.0 | 0.00 | 0.00 | 0.00 | 41 | 1011.5 |
| 20260504030639 | 42 | 235 | 0.0 | 0.0 | 0.00 | 0.00 | 0.00 | 45 | 1011.4 |
| 20260504030140 | 42 | 235 | 0.0 | 0.0 | 0.00 | 0.00 | 0.00 | 49 | 1011.5 |
| 20260504025645 | 43 | 235 | 0.0 | 0.0 | 0.00 | 0.00 | 0.00 | 51 | 1011.5 |
| 20260504025641 | 42 | 235 | 0.0 | 0.0 | 0.00 | 0.00 | 0.00 | 50 | 1011.4 |
| 20260504025258 | 43 | 235 | 0.0 | 0.0 | 0.00 | 0.00 | 0.00 | 52 | 1011.5 |
| 20260504024140 | 43 | 235 | 0.0 | 0.0 | 0.00 | 0.00 | 0.00 | 54 | 1011.5 |
| 20260504023639 | 44 | 234 | 0.0 | 0.0 | 0.00 | 0.00 | 0.00 | 57 | 1011.5 |
| 20260504023139 | 44 | 235 | 0.0 | 0.0 | 0.00 | 0.00 | 0.00 | 58 | 1011.5 |
| 20260504022639 | 44 | 235 | 0.0 | 0.0 | 0.00 | 0.00 | 0.00 | 57 | 1011.5 |
| 20260504022145 | 44 | 235 | 0.0 | 0.0 | 0.00 | 0.00 | 0.00 | 60 | 1011.4 |
| 20260504022139 | 44 | 235 | 0.0 | 0.0 | 0.00 | 0.00 | 0.00 | 58 | 1011.5 |
| 20260504021139 | 44 | 234 | 0.0 | 0.0 | 0.00 | 0.00 | 0.00 | 61 | 1011.5 |
| 20260504020638 | 45 | 235 | 0.0 | 0.0 | 0.00 | 0.00 | 0.00 | 61 | 1011.5 |
| 20260504020138 | 45 | 235 | 0.0 | 0.0 | 0.00 | 0.00 | 0.00 | 61 | 1011.4 |
| 20260504015638 | 45 | 235 | 0.0 | 0.0 | 0.00 | 0.00 | 0.00 | 61 | 1011.5 |
| 20260504015138 | 46 | 235 | 0.0 | 0.0 | 0.00 | 0.00 | 0.00 | 60 | 1011.4 |
| 20260504014644 | 46 | 235 | 0.0 | 0.0 | 0.00 | 0.00 | 0.00 | 59 | 1011.4 |
| 20260504014639 | 46 | 235 | 0.0 | 0.0 | 0.00 | 0.00 | 0.00 | 59 | 1011.3 |
| 20260504013637 | 47 | 234 | 0.0 | 0.0 | 0.00 | 0.00 | 0.00 | 59 | 1011.3 |
| 20260504013142 | 47 | 235 | 0.0 | 0.0 | 0.00 | 0.00 | 0.00 | 58 | 1011.2 |
| 20260504013137 | 47 | 235 | 0.0 | 0.0 | 0.00 | 0.00 | 0.00 | 59 | 1011.2 |
| 20260504012142 | 48 | 235 | 0.0 | 0.0 | 0.00 | 0.00 | 0.00 | 55 | 1011.1 |
| 20260504012137 | 47 | 235 | 0.0 | 0.0 | 0.00 | 0.00 | 0.00 | 56 | 1011.2 |
| 20260504011137 | 48 | 235 | 0.0 | 0.0 | 0.00 | 0.00 | 0.00 | 53 | 1011.0 |
| 20260504010636 | 49 | 235 | 0.0 | 0.0 | 0.00 | 0.00 | 0.00 | 51 | 1010.9 |
| 20260504010136 | 50 | 235 | 0.0 | 0.0 | 0.00 | 0.00 | 0.00 | 49 | 1010.8 |
| 20260504005635 | 50 | 235 | 0.0 | 0.0 | 0.00 | 0.00 | 0.00 | 48 | 1010.7 |
| 20260504005134 | 51 | 234 | 0.0 | 0.0 | 0.00 | 0.00 | 0.00 | 46 | 1010.7 |
| 20260504004641 | 52 | 235 | 0.0 | 0.0 | 0.00 | 0.00 | 0.00 | 44 | 1010.6 |
| 20260504004636 | 51 | 234 | 0.0 | 0.0 | 0.00 | 0.00 | 0.00 | 45 | 1010.6 |
| 20260504004256 | 52 | 235 | 0.0 | 0.0 | 0.00 | 0.00 | 0.00 | 43 | 1010.5 |
| 20260504003140 | 53 | 235 | 0.0 | 0.0 | 0.00 | 0.00 | 0.00 | 41 | 1010.3 |
| 20260504003134 | 53 | 235 | 0.0 | 0.0 | 0.00 | 0.00 | 0.00 | 42 | 1010.4 |
| 20260504002134 | 54 | 235 | 0.0 | 0.0 | 0.00 | 0.00 | 0.00 | 40 | 1010.3 |
| 20260504001634 | 54 | 235 | 0.0 | 0.0 | 0.00 | 0.00 | 0.00 | 39 | 1010.3 |
| 20260504001134 | 55 | 235 | 0.0 | 0.0 | 0.00 | 0.00 | 0.00 | 38 | 1010.2 |
| 20260504000634 | 55 | 234 | 0.0 | 0.0 | 0.00 | 0.00 | 0.00 | 37 | 1010.1 |
| 20260504000135 | 55 | 234 | 0.0 | 0.0 | 0.00 | 0.00 | 0.00 | 37 | 1009.9 |
| 20260503235634 | 55 | 234 | 0.0 | 0.9 | 0.00 | 0.00 | 0.00 | 36 | 1009.9 |
| 20260503235134 | 55 | 234 | 0.0 | 0.9 | 0.00 | 0.00 | 0.00 | 37 | 1009.8 |
| 20260503234633 | 55 | 75 | 0.0 | 2.6 | 0.00 | 0.00 | 0.00 | 35 | 1009.8 |
| 20260503234133 | 55 | 75 | 0.0 | 2.6 | 0.00 | 0.00 | 0.00 | 35 | 1009.7 |
| 20260503233638 | 56 | 231 | 0.0 | 0.9 | 0.00 | 0.00 | 0.00 | 36 | 1009.6 |
| 20260503233633 | 55 | 231 | 0.0 | 0.9 | 0.00 | 0.00 | 0.00 | 36 | 1009.6 |
| 20260503232633 | 56 | 338 | 0.0 | 1.7 | 0.00 | 0.00 | 0.00 | 36 | 1009.5 |
| 20260503232134 | 56 | 338 | 0.0 | 1.7 | 0.00 | 0.00 | 0.00 | 35 | 1009.5 |
| 20260503231639 | 57 | 228 | 0.0 | 0.9 | 0.00 | 0.00 | 0.00 | 33 | 1009.4 |
| 20260503231634 | 56 | 231 | 0.0 | 0.9 | 0.00 | 0.00 | 0.00 | 33 | 1009.3 |
| 20260503230637 | 57 | 250 | 0.9 | 2.6 | 0.00 | 0.00 | 0.00 | 32 | 1009.2 |
| 20260503230632 | 57 | 243 | 0.0 | 2.6 | 0.00 | 0.00 | 0.00 | 33 | 1009.4 |
| 20260503225632 | 57 | 278 | 0.0 | 5.2 | 0.00 | 0.00 | 0.00 | 31 | 1009.2 |
| 20260503225132 | 57 | 248 | 0.9 | 5.2 | 0.00 | 0.00 | 0.00 | 31 | 1009.1 |
| 20260503224631 | 58 | 250 | 0.0 | 3.5 | 0.00 | 0.00 | 0.00 | 31 | 1009.2 |
| 20260503224132 | 58 | 186 | 0.0 | 3.5 | 0.00 | 0.00 | 0.00 | 32 | 1009.1 |
| 20260503223631 | 58 | 255 | 0.0 | 2.6 | 0.00 | 0.00 | 0.00 | 31 | 1009.1 |
| 20260503223129 | 58 | 248 | 0.0 | 5.2 | 0.00 | 0.00 | 0.00 | 32 | 1009.1 |
| 20260503222631 | 58 | 233 | 0.0 | 5.2 | 0.00 | 0.00 | 0.00 | 32 | 1009.1 |
| 20260503222252 | 58 | 305 | 0.9 | 10.4 | 0.00 | 0.00 | 0.00 | 31 | 1009.1 |
| 20260503222135 | 58 | 316 | 0.9 | 10.4 | 0.00 | 0.00 | 0.00 | 31 | 1009.1 |
| 20260503222130 | 58 | 306 | 0.9 | 4.3 | 0.00 | 0.00 | 0.00 | 30 | 1009.1 |
| 20260503220631 | 58 | 38 | 1.7 | 5.2 | 0.00 | 0.00 | 0.00 | 32 | 1009.2 |
| 20260503220135 | 58 | 179 | 0.0 | 6.1 | 0.00 | 0.00 | 0.00 | 31 | 1009.1 |
| 20260503220130 | 58 | 138 | 0.0 | 3.5 | 0.00 | 0.00 | 0.00 | 34 | 1009.0 |
| 20260503215130 | 59 | 251 | 0.9 | 6.1 | 0.00 | 0.00 | 0.00 | 32 | 1009.1 |
| 20260503214629 | 59 | 226 | 0.0 | 5.2 | 0.00 | 0.00 | 0.00 | 32 | 1009.1 |
| 20260503214129 | 59 | 238 | 0.0 | 5.2 | 0.00 | 0.00 | 0.00 | 32 | 1009.1 |
| 20260503213629 | 59 | 268 | 0.9 | 3.5 | 0.00 | 0.00 | 0.00 | 33 | 1009.1 |
| 20260503213129 | 58 | 338 | 0.0 | 3.5 | 0.00 | 0.00 | 0.00 | 33 | 1009.0 |
| 20260503212629 | 58 | 154 | 0.9 | 3.5 | 0.00 | 0.00 | 0.00 | 34 | 1009.0 |
| 20260503212129 | 59 | 195 | 0.0 | 3.5 | 0.00 | 0.00 | 0.00 | 33 | 1008.9 |
| 20260503211629 | 59 | 338 | 0.0 | 2.6 | 0.00 | 0.00 | 0.00 | 35 | 1009.0 |
| 20260503211128 | 59 | 293 | 0.0 | 2.6 | 0.00 | 0.00 | 0.00 | 35 | 1008.9 |
| 20260503210629 | 59 | 282 | 0.0 | 2.6 | 0.00 | 0.00 | 0.00 | 34 | 1009.0 |
| 20260503210128 | 59 | 314 | 0.0 | 3.5 | 0.00 | 0.00 | 0.00 | 34 | 1009.0 |
| 20260503205629 | 59 | 336 | 0.0 | 3.5 | 0.00 | 0.00 | 0.00 | 34 | 1009.0 |
| 20260503205127 | 60 | 247 | 0.0 | 6.1 | 0.00 | 0.00 | 0.00 | 34 | 1008.9 |
| 20260503204627 | 59 | 269 | 1.7 | 6.1 | 0.00 | 0.00 | 0.00 | 35 | 1009.0 |
| 20260503204127 | 59 | 164 | 0.0 | 1.7 | 0.00 | 0.00 | 0.00 | 35 | 1009.0 |
| 20260503203627 | 59 | 135 | 0.0 | 5.2 | 0.00 | 0.00 | 0.00 | 37 | 1009.0 |
| 20260503203127 | 59 | 131 | 0.0 | 5.2 | 0.00 | 0.00 | 0.00 | 37 | 1008.9 |
| 20260503202626 | 60 | 149 | 0.0 | 1.7 | 0.00 | 0.00 | 0.00 | 39 | 1009.1 |
| 20260503202126 | 60 | 142 | 0.0 | 2.6 | 0.00 | 0.00 | 0.00 | 38 | 1008.9 |
| 20260503201626 | 60 | 295 | 0.0 | 2.6 | 0.00 | 0.00 | 0.00 | 38 | 1008.9 |
| 20260503201125 | 60 | 231 | 0.0 | 3.5 | 0.00 | 0.00 | 0.00 | 36 | 1008.9 |
| 20260503200626 | 59 | 159 | 0.0 | 3.5 | 0.00 | 0.00 | 0.00 | 38 | 1009.0 |
| 20260503200131 | 60 | 324 | 1.7 | 5.2 | 0.00 | 0.00 | 0.00 | 36 | 1009.1 |
| 20260503200126 | 59 | 300 | 0.0 | 5.2 | 0.00 | 0.00 | 0.00 | 36 | 1009.1 |
| 20260503195125 | 60 | 202 | 0.0 | 6.1 | 0.00 | 0.00 | 0.00 | 35 | 1009.1 |
| 20260503194626 | 60 | 168 | 0.0 | 6.1 | 0.00 | 0.00 | 0.00 | 39 | 1009.1 |
| 20260503194125 | 60 | 35 | 0.9 | 3.5 | 0.00 | 0.00 | 0.00 | 35 | 1009.3 |
| 20260503193625 | 60 | 296 | 0.0 | 5.2 | 0.00 | 0.00 | 0.00 | 37 | 1009.3 |
| 20260503193125 | 59 | 300 | 0.9 | 5.2 | 0.00 | 0.00 | 0.00 | 36 | 1009.4 |
| 20260503192623 | 58 | 258 | 0.9 | 2.6 | 0.00 | 0.00 | 0.00 | 38 | 1009.3 |
| 20260503192130 | 59 | 226 | 0.0 | 5.2 | 0.00 | 0.00 | 0.00 | 36 | 1009.6 |
| 20260503192125 | 58 | 241 | 0.0 | 5.2 | 0.00 | 0.00 | 0.00 | 37 | 1009.5 |
| 20260503191125 | 59 | 310 | 0.0 | 6.1 | 0.00 | 0.00 | 0.00 | 37 | 1009.6 |
| 20260503190629 | 58 | 265 | 0.0 | 4.3 | 0.00 | 0.00 | 0.00 | 42 | 1009.7 |
| 20260503190623 | 58 | 317 | 1.7 | 6.1 | 0.00 | 0.00 | 0.00 | 38 | 1009.5 |
| 20260503185629 | 58 | 323 | 2.6 | 8.7 | 0.00 | 0.00 | 0.00 | 36 | 1009.6 |
| 20260503185624 | 58 | 171 | 0.9 | 8.7 | 0.00 | 0.00 | 0.00 | 37 | 1009.6 |
| 20260503184623 | 58 | 234 | 0.0 | 10.4 | 0.00 | 0.00 | 0.00 | 39 | 1009.6 |
| 20260503184123 | 58 | 97 | 0.9 | 10.4 | 0.00 | 0.00 | 0.00 | 39 | 1009.4 |
| 20260503183624 | 58 | 296 | 0.9 | 8.7 | 0.00 | 0.00 | 0.00 | 38 | 1009.5 |
| 20260503183122 | 58 | 265 | 0.9 | 8.7 | 0.00 | 0.00 | 0.00 | 41 | 1009.6 |
| 20260503182624 | 58 | 219 | 0.0 | 4.3 | 0.00 | 0.00 | 0.00 | 39 | 1009.6 |
| 20260503182128 | 58 | 142 | 0.0 | 2.6 | 0.00 | 0.00 | 0.00 | 40 | 1009.6 |
| 20260503182123 | 58 | 248 | 0.9 | 4.3 | 0.00 | 0.00 | 0.00 | 37 | 1009.6 |
| 20260503181122 | 58 | 279 | 0.0 | 10.4 | 0.00 | 0.00 | 0.00 | 39 | 1009.7 |
| 20260503180622 | 58 | 316 | 0.0 | 10.4 | 0.00 | 0.00 | 0.00 | 41 | 1009.6 |
| 20260503180123 | 58 | 274 | 0.9 | 3.5 | 0.00 | 0.00 | 0.00 | 39 | 1009.5 |
| 20260503175627 | 59 | 305 | 0.0 | 8.7 | 0.00 | 0.00 | 0.00 | 41 | 1009.3 |
| 20260503175622 | 59 | 288 | 0.0 | 8.7 | 0.00 | 0.00 | 0.00 | 37 | 1009.6 |
| 20260503174621 | 58 | 227 | 0.0 | 4.3 | 0.00 | 0.00 | 0.00 | 41 | 1009.4 |
| 20260503174121 | 57 | 109 | 0.9 | 6.1 | 0.00 | 0.00 | 0.00 | 38 | 1009.3 |
| 20260503173621 | 57 | 231 | 0.0 | 6.1 | 0.00 | 0.00 | 0.00 | 37 | 1009.5 |
| 20260503173122 | 58 | 240 | 0.9 | 2.6 | 0.00 | 0.00 | 0.00 | 37 | 1009.6 |
| 20260503172621 | 57 | 293 | 0.9 | 7.8 | 0.00 | 0.00 | 0.00 | 40 | 1009.6 |
| 20260503172126 | 57 | 255 | 1.7 | 7.8 | 0.00 | 0.00 | 0.00 | 35 | 1009.6 |
| 20260503172121 | 57 | 258 | 1.7 | 7.8 | 0.00 | 0.00 | 0.00 | 37 | 1009.5 |
| 20260503171120 | 57 | 224 | 1.7 | 7.8 | 0.00 | 0.00 | 0.00 | 35 | 1009.6 |
| 20260503170619 | 58 | 228 | 0.0 | 2.6 | 0.00 | 0.00 | 0.00 | 36 | 1009.5 |
| 20260503170124 | 57 | 214 | 0.0 | 0.9 | 0.00 | 0.00 | 0.00 | 46 | 1009.8 |
| 20260503170119 | 59 | 337 | 0.0 | 0.9 | 0.00 | 0.00 | 0.00 | 42 | 1009.6 |
| 20260503160118 | 52 | 223 | 0.0 | 1.7 | 0.00 | 0.00 | 0.00 | 47 | 1010.1 |